地図

経路データ

SID SEASON NUMBER BASIN SUBBASIN NAME ISO_TIME NATURE LAT LON WMO_WIND WMO_PRES WMO_AGENCY TRACK_TYPE DIST2LAND LANDFALL IFLAG USA_AGENCY USA_ATCF_ID USA_LAT USA_LON USA_RECORD USA_STATUS USA_WIND USA_PRES USA_SSHS USA_R34_NE USA_R34_SE USA_R34_SW USA_R34_NW USA_R50_NE USA_R50_SE USA_R50_SW USA_R50_NW USA_R64_NE USA_R64_SE USA_R64_SW USA_R64_NW USA_POCI USA_ROCI USA_RMW USA_EYE TOKYO_LAT TOKYO_LON TOKYO_GRADE TOKYO_WIND TOKYO_PRES TOKYO_R50_DIR TOKYO_R50_LONG TOKYO_R50_SHORT TOKYO_R30_DIR TOKYO_R30_LONG TOKYO_R30_SHORT TOKYO_LAND CMA_LAT CMA_LON CMA_CAT CMA_WIND CMA_PRES HKO_LAT HKO_LON HKO_CAT HKO_WIND HKO_PRES NEWDELHI_LAT NEWDELHI_LON NEWDELHI_GRADE NEWDELHI_WIND NEWDELHI_PRES NEWDELHI_CI NEWDELHI_DP NEWDELHI_POCI REUNION_LAT REUNION_LON REUNION_TYPE REUNION_WIND REUNION_PRES REUNION_TNUM REUNION_CI REUNION_RMW REUNION_R34_NE REUNION_R34_SE REUNION_R34_SW REUNION_R34_NW REUNION_R50_NE REUNION_R50_SE REUNION_R50_SW REUNION_R50_NW REUNION_R64_NE REUNION_R64_SE REUNION_R64_SW REUNION_R64_NW BOM_LAT BOM_LON BOM_TYPE BOM_WIND BOM_PRES BOM_TNUM BOM_CI BOM_RMW BOM_R34_NE BOM_R34_SE BOM_R34_SW BOM_R34_NW BOM_R50_NE BOM_R50_SE BOM_R50_SW BOM_R50_NW BOM_R64_NE BOM_R64_SE BOM_R64_SW BOM_R64_NW BOM_ROCI BOM_POCI BOM_EYE BOM_POS_METHOD BOM_PRES_METHOD NADI_LAT NADI_LON NADI_CAT NADI_WIND NADI_PRES WELLINGTON_LAT WELLINGTON_LON WELLINGTON_WIND WELLINGTON_PRES DS824_LAT DS824_LON DS824_STAGE DS824_WIND DS824_PRES TD9636_LAT TD9636_LON TD9636_STAGE TD9636_WIND TD9636_PRES TD9635_LAT TD9635_LON TD9635_WIND TD9635_PRES TD9635_ROCI NEUMANN_LAT NEUMANN_LON NEUMANN_CLASS NEUMANN_WIND NEUMANN_PRES MLC_LAT MLC_LON MLC_CLASS MLC_WIND MLC_PRES USA_GUST BOM_GUST BOM_GUST_PER REUNION_GUST REUNION_GUST_PER USA_SEAHGT USA_SEARAD_NE USA_SEARAD_SE USA_SEARAD_SW USA_SEARAD_NW STORM_SPEED STORM_DIR
1981353S09172 1982 116 SP MM GYAN 1981-12-18 12:00:00 NR -9.00000 172.000 30 997 wellington main 857 806 ________O_____ -1 -9.00000 172.000 30 997 11 247
1981353S09172 1982 116 SP MM GYAN 1981-12-18 15:00:00 NR -9.21630 171.475 main 806 756 ________P_____ -1 -9.24371 171.498 30 997 11 247
1981353S09172 1982 116 SP MM GYAN 1981-12-18 18:00:00 NR -9.44577 170.960 main 756 699 ________P_____ -1 -9.48966 170.996 30 997 11 244
1981353S09172 1982 116 SP MM GYAN 1981-12-18 21:00:00 NR -9.70233 170.465 main 699 686 ________P_____ -1 -9.74077 170.497 30 997 10 270
1981353S09172 1982 116 SP MM GYAN 1981-12-19 00:00:00 TS -9.45000 169.950 30 997 wellington main 699 677 O_______O_O_O_ jtwc_sh SH061982 -8.90000 169.900 -1 -10.0000 170.000 30 997 -8.90000 169.900 1 -8.90000 169.900 TC 20 9 290
1981353S09172 1982 116 SP MM GYAN 1981-12-19 03:00:00 TS -9.40998 169.630 main 677 667 P_________P_P_ SH061982 -9.09255 169.640 -1 -9.10638 169.669 1 -9.09255 169.640 TC 27 6 270
1981353S09172 1982 116 SP MM GYAN 1981-12-19 06:00:00 TS -9.45000 169.389 main 657 647 O_________P_O_ jtwc_sh SH061982 -9.30000 169.400 -1 -9.32014 169.440 1 -9.30000 169.400 TC 35 4 253
1981353S09172 1982 116 SP MM GYAN 1981-12-19 09:00:00 TS -9.53960 169.200 main 647 607 P_________P_P_ SH061982 -9.53498 169.192 -1 -9.54883 169.216 1 -9.53498 169.192 TC 32 5 228
1981353S09172 1982 116 SP MM GYAN 1981-12-19 12:00:00 TS -9.80000 169.000 40 990 wellington main 607 567 O_________O_O_ jtwc_sh SH061982 -9.80000 169.000 -1 -9.80000 169.000 1 -9.80000 169.000 TC 30 7 216
1981353S09172 1982 116 SP MM GYAN 1981-12-19 15:00:00 TS -10.0878 168.798 main 567 528 P_________P_P_ SH061982 -10.0925 168.800 -1 -10.0784 168.793 1 -10.0925 168.800 TC 30 7 214
1981353S09172 1982 116 SP MM GYAN 1981-12-19 18:00:00 TS -10.3925 168.597 main 528 488 O_________P_O_ jtwc_sh SH061982 -10.4000 168.600 -1 -10.3774 168.592 1 -10.4000 168.600 TC 30 7 213
1981353S09172 1982 116 SP MM GYAN 1981-12-19 21:00:00 TS -10.6959 168.399 main 488 449 P_________P_P_ SH061982 -10.7000 168.400 -1 -10.6878 168.396 1 -10.7000 168.400 TC 30 7 213
1981353S09172 1982 116 SP MM GYAN 1981-12-20 00:00:00 TS -11.0000 168.200 45 987 wellington main 449 409 O_________O_O_ jtwc_sh SH061982 -11.0000 168.200 -1 -11.0000 168.200 1 -11.0000 168.200 TC 30 7 213
1981353S09172 1982 116 SP MM GYAN 1981-12-20 03:00:00 TS -11.3013 168.001 main 409 370 P_________P_P_ SH061982 -11.3000 168.000 -1 -11.3040 168.004 1 -11.3000 168.000 TC 32 7 213
1981353S09172 1982 116 SP MM GYAN 1981-12-20 06:00:00 TS -11.6025 167.802 main 370 331 O_________P_O_ jtwc_sh SH061982 -11.6000 167.800 -1 -11.6074 167.807 1 -11.6000 167.800 TC 35 7 213
1981353S09172 1982 116 SP MM GYAN 1981-12-20 09:00:00 TS -11.9024 167.597 main 331 292 P_________P_P_ SH061982 -11.9000 167.592 -1 -11.9071 167.607 1 -11.9000 167.592 TC 40 7 213
1981353S09172 1982 116 SP MM GYAN 1981-12-20 12:00:00 TS -12.2000 167.400 55 980 wellington main 292 257 O_________O_O_ jtwc_sh SH061982 -12.2000 167.400 -1 -12.2000 167.400 1 -12.2000 167.400 TC 45 7 210
1981353S09172 1982 116 SP MM GYAN 1981-12-20 15:00:00 TS -12.4948 167.255 main 257 219 P_________P_P_ SH061982 -12.5074 167.265 -1 -12.4695 167.234 1 -12.5074 167.265 TC 50 7 208
1981353S09172 1982 116 SP MM GYAN 1981-12-20 18:00:00 TS -12.7781 167.085 main 219 193 O_________P_O_ jtwc_sh SH061982 -12.8000 167.100 -1 -12.7342 167.054 1 -12.8000 167.100 TC 55 7 216
1981353S09172 1982 116 SP MM GYAN 1981-12-20 21:00:00 TS -13.0355 166.847 main 191 156 P_________P_P_ SH061982 -13.0499 166.860 -1 -13.0068 166.822 1 -13.0499 166.860 TC 60 8 227
1981353S09172 1982 116 SP MM GYAN 1981-12-21 00:00:00 TS -13.3000 166.500 65 970 wellington main 157 139 O_________O_O_ jtwc_sh SH061982 -13.3000 166.500 -1 -13.3000 166.500 1 -13.3000 166.500 TC 65 10 237
1981353S09172 1982 116 SP MM GYAN 1981-12-21 03:00:00 TS -13.5757 166.006 main 139 135 P_________P_P_ SH061982 -13.5776 165.987 -1 -13.5721 166.043 1 -13.5776 165.987 TC 67 12 240
1981353S09172 1982 116 SP MM GYAN 1981-12-21 06:00:00 TS -13.8911 165.432 main 155 155 O_________P_O_ jtwc_sh SH061982 -13.9000 165.400 -1 -13.8732 165.496 1 -13.9000 165.400 TC 70 13 239
1981353S09172 1982 116 SP MM GYAN 1981-12-21 09:00:00 TS -14.2341 164.867 main 184 184 P_________P_P_ SH061982 -14.2324 164.849 -1 -14.2376 164.901 1 -14.2324 164.849 TC 75 14 234
1981353S09172 1982 116 SP MM GYAN 1981-12-21 12:00:00 TS -14.7000 164.300 70 965 wellington main 236 236 O_________O_O_ jtwc_sh SH061982 -14.7000 164.300 -1 -14.7000 164.300 2 -14.7000 164.300 TC 80 16 223
1981353S09172 1982 116 SP MM GYAN 1981-12-21 15:00:00 TS -15.4033 163.723 main 308 308 P_________P_P_ SH061982 -15.4124 163.750 -1 -15.3852 163.668 2 -15.4124 163.750 TC 85 19 217
1981353S09172 1982 116 SP MM GYAN 1981-12-21 18:00:00 TS -16.1845 163.149 main 385 385 O_________P_O_ jtwc_sh SH061982 -16.2000 163.200 -1 -16.1535 163.047 2 -16.2000 163.200 TC 90 19 217
1981353S09172 1982 116 SP MM GYAN 1981-12-21 21:00:00 TS -16.9394 162.522 main 405 368 P_________P_P_ SH061982 -16.9327 162.590 -1 -16.8949 162.502 2 -16.9327 162.590 TC 95 17 218
1981353S09172 1982 116 SP MM GYAN 1981-12-22 00:00:00 TS -17.4857 162.086 80 955 wellington main 368 354 O_______O_O_O_ jtwc_sh SH061982 -17.5000 162.100 -1 -17.4000 162.000 80 955 -17.5000 162.100 4 -17.5000 162.100 TC 100 10 216
1981353S09172 1982 116 SP MM GYAN 1981-12-22 03:00:00 TS -17.7636 161.885 main 354 353 P_______P_P_P_ SH061982 -17.7747 161.852 -1 -17.6593 161.941 82 951 -17.8289 161.910 4 -17.7747 161.852 TC 102 5 207
1981353S09172 1982 116 SP MM GYAN 1981-12-22 06:00:00 TS -17.9284 161.846 main 353 329 O_______P_P_O_ jtwc_sh SH061982 -17.9000 161.800 -1 -17.9129 161.919 85 947 -18.0138 161.867 4 -17.9000 161.800 TC 105 3 176
1981353S09172 1982 116 SP MM GYAN 1981-12-22 09:00:00 TS -18.0962 161.902 main 329 314 P_______P_P_P_ SH061982 -18.0575 161.877 -1 -18.1601 161.938 87 943 -18.1168 161.917 4 -18.0575 161.877 TC 107 4 155
1981353S09172 1982 116 SP MM GYAN 1981-12-22 12:00:00 TS -18.2500 162.000 90 940 wellington main 314 298 O_______O_O_O_ jtwc_sh SH061982 -18.2000 162.000 -1 -18.4000 162.000 90 940 -18.2000 162.000 4 -18.2000 162.000 TC 110 3 160
1981353S09172 1982 116 SP MM GYAN 1981-12-22 15:00:00 TS -18.4142 162.020 main 298 275 P_______P_P_P_ SH061982 -18.3500 162.000 -1 -18.6322 162.095 92 936 -18.3245 161.984 4 -18.3500 162.000 TC 107 3 170
1981353S09172 1982 116 SP MM GYAN 1981-12-22 18:00:00 TS -18.5761 162.057 main 275 267 O_______P_P_O_ jtwc_sh SH061982 -18.5000 162.000 -1 -18.8575 162.233 95 932 -18.4471 161.996 4 -18.5000 162.000 TC 105 3 159
1981353S09172 1982 116 SP MM GYAN 1981-12-22 21:00:00 TS -18.7325 162.147 main 267 237 P_______P_P_P_ SH061982 -18.6275 162.063 -1 -19.0790 162.404 97 928 -18.5962 162.060 4 -18.6275 162.063 TC 102 4 146
1981353S09172 1982 116 SP MM GYAN 1981-12-23 00:00:00 TS -18.9250 162.300 100 925 wellington main 237 199 O_______O_O_O_ jtwc_sh SH061982 -18.8000 162.200 -1 -19.3000 162.600 100 925 -18.8000 162.200 4 -18.8000 162.200 TC 100 6 143
1981353S09172 1982 116 SP MM GYAN 1981-12-23 03:00:00 TS -19.1876 162.505 main 199 154 P_______P_P_P_ SH061982 -19.0624 162.405 -1 -19.5207 162.779 95 932 -19.1047 162.429 4 -19.0624 162.405 TC 95 7 142
1981353S09172 1982 116 SP MM GYAN 1981-12-23 06:00:00 TS -19.5012 162.780 main 154 109 O_______P_P_O_ jtwc_sh SH061982 -19.4000 162.700 -1 -19.7421 162.983 90 940 -19.4625 162.737 4 -19.4000 162.700 TC 90 9 139
1981353S09172 1982 116 SP MM GYAN 1981-12-23 09:00:00 TS -19.8516 163.115 main 104 53 P_______P_P_P_ SH061982 -19.8000 163.070 -1 -19.9675 163.220 85 947 -19.8390 163.101 4 -19.8000 163.070 TC 85 10 136
1981353S09172 1982 116 SP MM GYAN 1981-12-23 12:00:00 TS -20.2000 163.500 80 955 wellington main 53 23 O_______O_O_O_ jtwc_sh SH061982 -20.2000 163.500 -1 -20.2000 163.500 80 955 -20.2000 163.500 4 -20.2000 163.500 TC 80 10 131
1981353S09172 1982 116 SP MM GYAN 1981-12-23 15:00:00 TS -20.5085 163.922 main 23 10 P_______P_P_P_ SH061982 -20.5225 163.950 -1 -20.4635 163.848 76 958 -20.5256 163.940 4 -20.5225 163.950 TC 75 10 126
1981353S09172 1982 116 SP MM GYAN 1981-12-23 18:00:00 TS -20.7891 164.359 main 0 0 O_______P_P_O_ jtwc_sh SH061982 -20.8000 164.400 -1 -20.7305 164.234 72 962 -20.8259 164.402 4 -20.8000 164.400 TC 70 10 124
1981353S09172 1982 116 SP MM GYAN 1981-12-23 21:00:00 TS -21.0576 164.789 main 0 0 P_______P_P_P_ SH061982 -21.0800 164.845 -1 -20.9822 164.629 68 966 -21.0881 164.837 4 -21.0800 164.845 TC 67 9 123
1981353S09172 1982 116 SP MM GYAN 1981-12-24 00:00:00 TS -21.2750 165.150 65 970 wellington main 0 0 O_______O_O_O_ jtwc_sh SH061982 -21.3000 165.200 -1 -21.2000 165.000 65 970 -21.3000 165.200 4 -21.3000 165.200 TC 65 7 123
1981353S09172 1982 116 SP MM GYAN 1981-12-24 03:00:00 TS -21.4117 165.379 main 0 0 P_______P_P_P_ SH061982 -21.4223 165.388 -1 -21.3567 165.325 62 972 -21.4455 165.414 4 -21.4223 165.388 TC 60 4 122
1981353S09172 1982 116 SP MM GYAN 1981-12-24 06:00:00 TS -21.5059 165.543 main 0 0 O_______P_P_O_ jtwc_sh SH061982 -21.5000 165.500 -1 -21.4798 165.618 60 975 -21.5440 165.554 4 -21.5000 165.500 TC 55 4 122
1981353S09172 1982 116 SP MM GYAN 1981-12-24 09:00:00 TS -21.5984 165.700 main 0 0 P_______P_P_P_ SH061982 -21.5924 165.628 -1 -21.5880 165.878 57 977 -21.6206 165.667 4 -21.5924 165.628 TC 50 4 122
1981353S09172 1982 116 SP MM GYAN 1981-12-24 12:00:00 TS -21.7000 165.875 55 980 wellington main 0 0 O_______O_O_O_ jtwc_sh SH061982 -21.7000 165.800 -1 -21.7000 166.100 55 980 -21.7000 165.800 2 -21.7000 165.800 TC 45 5 121
1981353S09172 1982 116 SP MM GYAN 1981-12-24 15:00:00 TS -21.8454 166.145 main 0 0 P_______P_P_P_ SH061982 -21.8501 166.092 -1 -21.8589 166.322 52 981 -21.8223 166.074 2 -21.8501 166.092 TC 40 6 120
1981353S09172 1982 116 SP MM GYAN 1981-12-24 18:00:00 TS -21.9932 166.418 main 0 0 O_______P_P_O_ jtwc_sh SH061982 -22.0000 166.400 -1 -22.0223 166.505 50 983 -21.9506 166.367 2 -22.0000 166.400 TC 35 5 121
1981353S09172 1982 116 SP MM GYAN 1981-12-24 21:00:00 TS -22.1170 166.638 main 0 0 P_______P_P_P_ SH061982 -22.1075 166.645 -1 -22.1746 166.635 47 985 -22.0785 166.627 2 -22.1075 166.645 TC 27 4 125
1981353S09172 1982 116 SP MM GYAN 1981-12-25 00:00:00 TS -22.2250 166.775 45 987 wellington main 0 0 O_______O_O_O_ jtwc_sh SH061982 -22.2000 166.800 -1 -22.3000 166.700 45 987 -22.2000 166.800 2 -22.2000 166.800 TC 20 3 141
1981353S09172 1982 116 SP MM GYAN 1981-12-25 03:00:00 TS -22.3223 166.815 main 0 0 P_______P_P_P_ SH061982 -22.2999 166.853 -1 -22.3826 166.722 42 989 -22.3069 166.831 2 -22.2999 166.853 TC 25 2 0
1981353S09172 1982 116 SP MM GYAN 1981-12-25 06:00:00 TS -22.4111 166.762 main 0 0 O_______P_P_O_ jtwc_sh SH061982 -22.4000 166.800 -1 -22.4371 166.678 40 991 -22.4072 166.770 2 -22.4000 166.800 TC 30 2 223
1981353S09172 1982 116 SP MM GYAN 1981-12-25 09:00:00 TS -22.4943 166.641 main 15 15 P_______P_P_P_ SH061982 -22.5000 166.673 -1 -22.4731 166.569 37 993 -22.5039 166.650 2 -22.5000 166.673 TC 30 3 238
1981353S09172 1982 116 SP MM GYAN 1981-12-25 12:00:00 TS -22.5750 166.475 35 995 wellington main 30 30 O_______O_O_O_ jtwc_sh SH061982 -22.6000 166.500 -1 -22.5000 166.400 35 995 -22.6000 166.500 2 -22.6000 166.500 TC 30 3 241
1981353S09172 1982 116 SP MM GYAN 1981-12-25 15:00:00 TS -22.6611 166.315 main 45 45 P_______P_P_P_ SH061982 -22.7000 166.350 -1 -22.5284 166.178 33 995 -22.7162 166.380 2 -22.7000 166.350 TC 27 4 241
1981353S09172 1982 116 SP MM GYAN 1981-12-25 18:00:00 TS -22.7451 166.135 main 54 54 O_______P_P_O_ jtwc_sh SH061982 -22.8000 166.200 -1 -22.5503 165.902 32 996 -22.8300 166.238 2 -22.8000 166.200 TC 25 4 243
1981353S09172 1982 116 SP MM GYAN 1981-12-25 21:00:00 TS -22.8327 165.948 main 75 75 P_______P_P_P_ SH061982 -22.9150 166.058 -1 -22.5721 165.600 31 996 -22.9287 166.077 2 -22.9150 166.058 TC 25 4 246
1981353S09172 1982 116 SP MM GYAN 1981-12-26 00:00:00 TS -22.9000 165.750 30 997 wellington main 91 91 O_______O_O_O_ jtwc_sh SH061982 -23.0000 165.900 -1 -22.6000 165.300 30 997 -23.0000 165.900 1 -23.0000 165.900 TC 25 4 257
1981353S09172 1982 116 SP MM GYAN 1981-12-26 03:00:00 TS -22.9183 165.541 main 108 108 P_______P_P_P_ SH061982 -23.0150 165.707 -1 -22.6265 165.035 30 997 -23.0166 165.714 1 -23.0150 165.707 TC 22 4 267
1981353S09172 1982 116 SP MM GYAN 1981-12-26 06:00:00 TS -22.9175 165.323 main 121 121 O_______P_P_O_ jtwc_sh SH061982 -23.0000 165.500 -1 -22.6624 164.777 30 997 -23.0075 165.515 1 -23.0000 165.500 TC 20 4 269
1981353S09172 1982 116 SP MM GYAN 1981-12-26 09:00:00 TS -22.9242 165.110 main 132 132 P_______P_P_P_ SH061982 -22.9925 165.300 -1 -22.7171 164.531 30 997 -22.9947 165.308 1 -22.9925 165.300 TC 20 4 265
1981353S09172 1982 116 SP MM GYAN 1981-12-26 12:00:00 TS -22.9500 164.900 30 997 wellington main 145 153 O_______O_O_O_ jtwc_sh SH061982 -23.0000 165.100 -1 -22.8000 164.300 30 997 -23.0000 165.100 1 -23.0000 165.100 TC 20 4 259
1981353S09172 1982 116 SP MM GYAN 1981-12-26 15:00:00 TS -22.9976 164.692 main 166 166 P_______P_P_P_ SH061982 -23.0350 164.900 -1 -22.8806 164.073 30 997 -23.0401 164.896 1 -23.0350 164.900 TC 20 4 254
1981353S09172 1982 116 SP MM GYAN 1981-12-26 18:00:00 TS -23.0700 164.441 main 191 191 O_______P_P_O_ jtwc_sh SH061982 -23.1000 164.700 -1 -22.9949 163.862 30 997 -23.1101 164.695 1 -23.1000 164.700 TC 20 5 249
1981353S09172 1982 116 SP MM GYAN 1981-12-26 21:00:00 TS -23.1818 164.168 main 211 211 P_______P_P_P_ SH061982 -23.1926 164.500 -1 -23.1619 163.670 30 997 -23.2001 164.497 1 -23.1926 164.500 TC 20 6 242
1981353S09172 1982 116 SP MM GYAN 1981-12-27 00:00:00 TS -23.3571 163.843 30 997 wellington main 250 250 O_______O_O_O_ jtwc_sh SH061982 -23.3000 164.300 -1 -23.4000 163.500 30 997 -23.3000 164.300 1 -23.3000 164.300 TC 20 9 240
1981353S09172 1982 116 SP MM GYAN 1981-12-27 03:00:00 NR -23.6308 163.337 main 295 295 ________P_____ SH061982 -1 -23.6308 163.337 30 997 1 TC 8 225
1981353S09172 1982 116 SP MM GYAN 1981-12-27 06:00:00 NR -23.9453 163.198 main 329 329 ________P_____ -1 -23.9453 163.198 30 997 1 8 197
1981353S09172 1982 116 SP MM GYAN 1981-12-27 09:00:00 NR -24.3871 163.084 main 382 382 ________P_____ -1 -24.3871 163.084 30 997 1 11 190
1981353S09172 1982 116 SP MM GYAN 1981-12-27 12:00:00 NR -25.0000 163.000 30 997 wellington main 446 446 ________O_____ -1 -25.0000 163.000 30 997 14 186
1981353S09172 1982 116 SP MM GYAN 1981-12-27 15:00:00 NR -25.7875 162.927 main 525 525 ________P_____ -1 -25.7875 162.927 30 997 18 183
1981353S09172 1982 116 SP MM GYAN 1981-12-27 18:00:00 NR -26.7460 162.884 main 605 605 ________P_____ -1 -26.7460 162.884 30 997 21 181
1981353S09172 1982 116 SP MM GYAN 1981-12-27 21:00:00 NR -27.8314 162.874 main 708 708 ________P_____ -1 -27.8314 162.874 30 997 23 0
1981353S09172 1982 116 SP MM GYAN 1981-12-28 00:00:00 NR -29.0000 162.900 30 997 wellington main 826 826 ________O_____ -1 -29.0000 162.900 30 997 24 179
1981353S09172 1982 116 SP MM GYAN 1981-12-28 03:00:00 NR -30.2181 162.914 main 909 909 ________P_____ -1 -30.2181 162.914 30 997 25 179
1981353S09172 1982 116 SP MM GYAN 1981-12-28 06:00:00 NR -31.4992 162.970 main 939 900 ________P_____ -1 -31.4992 162.970 30 997 26 177
1981353S09172 1982 116 SP MM GYAN 1981-12-28 09:00:00 NR -32.7807 163.091 main 897 855 ________P_____ -1 -32.7807 163.091 30 997 25 174
1981353S09172 1982 116 SP MM GYAN 1981-12-28 12:00:00 NR -34.0000 163.300 30 997 wellington main 854 821 ________O_____ -1 -34.0000 163.300 30 997 24 169
1981353S09172 1982 116 SP MM GYAN 1981-12-28 15:00:00 NR -35.1128 163.643 main 822 789 ________P_____ -1 -35.1128 163.643 30 997 22 164
1981353S09172 1982 116 SP MM GYAN 1981-12-28 18:00:00 NR -36.1507 164.076 main 791 778 ________P_____ -1 -36.1507 164.076 30 997 21 160
1981353S09172 1982 116 SP MM GYAN 1981-12-28 21:00:00 NR -37.1131 164.547 main 779 687 ________P_____ -1 -37.1131 164.547 30 997 20 158
1981353S09172 1982 116 SP MM GYAN 1981-12-29 00:00:00 NR -38.0000 165.000 30 997 wellington main 687 614 ________O_____ -1 -38.0000 165.000 30 997 18 159
1981353S09172 1982 116 SP MM GYAN 1981-12-29 03:00:00 NR -38.8151 165.390 main 614 549 ________P_____ -1 -38.8151 165.390 30 997 17 160
1981353S09172 1982 116 SP MM GYAN 1981-12-29 06:00:00 NR -39.5744 165.724 main 540 460 ________P_____ -1 -39.5744 165.724 30 997 16 162
1981353S09172 1982 116 SP MM GYAN 1981-12-29 09:00:00 NR -40.2966 166.020 main 460 381 ________P_____ -1 -40.2966 166.020 30 997 15 163
1981353S09172 1982 116 SP MM GYAN 1981-12-29 12:00:00 NR -41.0000 166.300 30 997 wellington main 381 ________O_____ -1 -41.0000 166.300 30 997 15 163

デジタル台風データ・検索

IBTrACS Databaseについて

本データベースは、米国NOAAが公開する1842年以降の世界の熱帯低気圧のベストトラックデータアーカイブInternational Best Track Archive for Climate Stewardship (IBTrACS)を、ウェブで閲覧しやすい形式に変換したものです。

最終更新日:2021-10-25